sensor_id;sensor_type;location;lat;lon;timestamp;temperature;humidity
20534;DHT22;12929;56.822;26.056;2022-09-09T00:00:53;7.10;99.90
20534;DHT22;12929;56.822;26.056;2022-09-09T00:03:31;7.00;99.90
20534;DHT22;12929;56.822;26.056;2022-09-09T00:06:28;7.00;99.90
20534;DHT22;12929;56.822;26.056;2022-09-09T00:09:21;6.90;99.90
20534;DHT22;12929;56.822;26.056;2022-09-09T00:11:57;6.90;99.90
20534;DHT22;12929;56.822;26.056;2022-09-09T00:14:39;6.90;99.90
20534;DHT22;12929;56.822;26.056;2022-09-09T00:17:14;6.90;99.90
20534;DHT22;12929;56.822;26.056;2022-09-09T00:20:20;6.90;99.90
20534;DHT22;12929;56.822;26.056;2022-09-09T00:23:05;6.80;99.90
20534;DHT22;12929;56.822;26.056;2022-09-09T00:25:45;6.70;99.90
20534;DHT22;12929;56.822;26.056;2022-09-09T00:28:21;6.80;99.90
20534;DHT22;12929;56.822;26.056;2022-09-09T00:30:50;6.80;99.90
20534;DHT22;12929;56.822;26.056;2022-09-09T00:33:20;6.80;99.90
20534;DHT22;12929;56.822;26.056;2022-09-09T00:35:56;6.70;99.90
20534;DHT22;12929;56.822;26.056;2022-09-09T00:38:38;6.70;99.90
20534;DHT22;12929;56.822;26.056;2022-09-09T00:41:11;6.70;99.90
20534;DHT22;12929;56.822;26.056;2022-09-09T00:43:42;6.70;99.90
20534;DHT22;12929;56.822;26.056;2022-09-09T00:57:36;6.60;99.90
20534;DHT22;12929;56.822;26.056;2022-09-09T01:00:21;6.60;99.90
20534;DHT22;12929;56.822;26.056;2022-09-09T01:02:56;6.60;99.90
20534;DHT22;12929;56.822;26.056;2022-09-09T01:11:26;6.60;99.90
20534;DHT22;12929;56.822;26.056;2022-09-09T01:16:45;6.60;99.90
20534;DHT22;12929;56.822;26.056;2022-09-09T01:19:27;6.50;99.90
20534;DHT22;12929;56.822;26.056;2022-09-09T01:25:15;6.30;99.90
20534;DHT22;12929;56.822;26.056;2022-09-09T01:28:06;6.40;99.90
20534;DHT22;12929;56.822;26.056;2022-09-09T01:30:39;6.40;99.90
20534;DHT22;12929;56.822;26.056;2022-09-09T01:33:16;6.40;99.90
20534;DHT22;12929;56.822;26.056;2022-09-09T01:38:51;6.40;99.90
20534;DHT22;12929;56.822;26.056;2022-09-09T01:41:19;6.40;99.90
20534;DHT22;12929;56.822;26.056;2022-09-09T01:44:03;6.40;99.90
20534;DHT22;12929;56.822;26.056;2022-09-09T01:46:34;6.40;99.90
20534;DHT22;12929;56.822;26.056;2022-09-09T01:49:05;6.30;99.90
20534;DHT22;12929;56.822;26.056;2022-09-09T01:51:36;6.30;99.90
20534;DHT22;12929;56.822;26.056;2022-09-09T01:54:07;6.30;99.90
20534;DHT22;12929;56.822;26.056;2022-09-09T01:56:52;6.40;99.90
20534;DHT22;12929;56.822;26.056;2022-09-09T02:02:44;6.30;99.90
20534;DHT22;12929;56.822;26.056;2022-09-09T02:05:40;6.30;99.90
20534;DHT22;12929;56.822;26.056;2022-09-09T02:08:40;6.20;99.90
20534;DHT22;12929;56.822;26.056;2022-09-09T02:11:14;6.20;99.90
20534;DHT22;12929;56.822;26.056;2022-09-09T02:13:49;6.20;99.90
20534;DHT22;12929;56.822;26.056;2022-09-09T02:16:26;6.20;99.90
20534;DHT22;12929;56.822;26.056;2022-09-09T02:19:01;6.30;99.90
20534;DHT22;12929;56.822;26.056;2022-09-09T02:21:45;6.20;99.90
20534;DHT22;12929;56.822;26.056;2022-09-09T02:24:16;6.20;99.90
20534;DHT22;12929;56.822;26.056;2022-09-09T02:26:53;6.20;99.90
20534;DHT22;12929;56.822;26.056;2022-09-09T02:29:26;6.20;99.90
20534;DHT22;12929;56.822;26.056;2022-09-09T02:31:59;6.20;99.90
20534;DHT22;12929;56.822;26.056;2022-09-09T02:34:36;6.20;99.90
20534;DHT22;12929;56.822;26.056;2022-09-09T02:37:08;6.10;99.90
20534;DHT22;12929;56.822;26.056;2022-09-09T02:39:39;6.20;99.90
20534;DHT22;12929;56.822;26.056;2022-09-09T02:42:11;6.20;99.90
20534;DHT22;12929;56.822;26.056;2022-09-09T02:44:39;6.10;99.90
20534;DHT22;12929;56.822;26.056;2022-09-09T02:52:32;6.10;99.90
20534;DHT22;12929;56.822;26.056;2022-09-09T02:55:10;6.10;99.90
20534;DHT22;12929;56.822;26.056;2022-09-09T02:57:40;6.10;99.90
20534;DHT22;12929;56.822;26.056;2022-09-09T03:00:10;6.10;99.90
20534;DHT22;12929;56.822;26.056;2022-09-09T03:02:39;6.00;99.90
20534;DHT22;12929;56.822;26.056;2022-09-09T03:05:07;6.10;99.90
20534;DHT22;12929;56.822;26.056;2022-09-09T03:07:36;5.90;99.90
20534;DHT22;12929;56.822;26.056;2022-09-09T03:10:04;6.10;99.90
20534;DHT22;12929;56.822;26.056;2022-09-09T03:12:32;6.10;99.90
20534;DHT22;12929;56.822;26.056;2022-09-09T03:15:00;6.10;99.90
20534;DHT22;12929;56.822;26.056;2022-09-09T03:17:29;6.00;99.90
20534;DHT22;12929;56.822;26.056;2022-09-09T03:19:57;6.00;99.90
20534;DHT22;12929;56.822;26.056;2022-09-09T03:22:26;6.00;99.90
20534;DHT22;12929;56.822;26.056;2022-09-09T03:24:57;6.10;99.90
20534;DHT22;12929;56.822;26.056;2022-09-09T03:27:25;6.00;99.90
20534;DHT22;12929;56.822;26.056;2022-09-09T03:29:53;6.10;99.90
20534;DHT22;12929;56.822;26.056;2022-09-09T03:32:24;6.10;99.90
20534;DHT22;12929;56.822;26.056;2022-09-09T03:34:56;6.00;99.90
20534;DHT22;12929;56.822;26.056;2022-09-09T03:37:24;6.00;99.90
20534;DHT22;12929;56.822;26.056;2022-09-09T03:39:53;6.00;99.90
20534;DHT22;12929;56.822;26.056;2022-09-09T03:42:22;6.00;99.90
20534;DHT22;12929;56.822;26.056;2022-09-09T03:44:53;5.90;99.90
20534;DHT22;12929;56.822;26.056;2022-09-09T03:47:24;5.90;99.90
20534;DHT22;12929;56.822;26.056;2022-09-09T03:49:57;5.90;99.90
20534;DHT22;12929;56.822;26.056;2022-09-09T03:52:28;5.80;99.90
20534;DHT22;12929;56.822;26.056;2022-09-09T03:54:57;5.80;99.90
20534;DHT22;12929;56.822;26.056;2022-09-09T03:57:26;5.80;99.90
20534;DHT22;12929;56.822;26.056;2022-09-09T03:59:54;5.90;99.90
20534;DHT22;12929;56.822;26.056;2022-09-09T04:02:22;5.70;99.90
20534;DHT22;12929;56.822;26.056;2022-09-09T04:04:55;5.80;99.90
20534;DHT22;12929;56.822;26.056;2022-09-09T04:07:24;5.70;99.90
20534;DHT22;12929;56.822;26.056;2022-09-09T04:09:52;5.80;99.90
20534;DHT22;12929;56.822;26.056;2022-09-09T04:12:22;5.80;99.90
20534;DHT22;12929;56.822;26.056;2022-09-09T04:14:50;5.90;99.90
20534;DHT22;12929;56.822;26.056;2022-09-09T04:17:20;5.90;99.90
20534;DHT22;12929;56.822;26.056;2022-09-09T04:19:50;5.80;99.90
20534;DHT22;12929;56.822;26.056;2022-09-09T04:22:19;5.80;99.90
20534;DHT22;12929;56.822;26.056;2022-09-09T04:24:47;5.90;99.90
20534;DHT22;12929;56.822;26.056;2022-09-09T04:27:18;5.80;99.90
20534;DHT22;12929;56.822;26.056;2022-09-09T04:29:49;5.80;99.90
20534;DHT22;12929;56.822;26.056;2022-09-09T04:32:18;5.80;99.90
20534;DHT22;12929;56.822;26.056;2022-09-09T04:34:47;5.80;99.90
20534;DHT22;12929;56.822;26.056;2022-09-09T04:37:16;5.80;99.90
20534;DHT22;12929;56.822;26.056;2022-09-09T04:39:47;5.90;99.90
20534;DHT22;12929;56.822;26.056;2022-09-09T04:42:16;5.80;99.90
20534;DHT22;12929;56.822;26.056;2022-09-09T04:44:46;5.80;99.90
20534;DHT22;12929;56.822;26.056;2022-09-09T04:47:15;5.80;99.90
20534;DHT22;12929;56.822;26.056;2022-09-09T04:49:43;5.80;99.90
20534;DHT22;12929;56.822;26.056;2022-09-09T04:52:11;5.90;99.90
20534;DHT22;12929;56.822;26.056;2022-09-09T04:54:39;5.80;99.90
20534;DHT22;12929;56.822;26.056;2022-09-09T04:57:07;5.80;99.90
20534;DHT22;12929;56.822;26.056;2022-09-09T04:59:45;5.90;99.90
20534;DHT22;12929;56.822;26.056;2022-09-09T05:02:14;5.70;99.90
20534;DHT22;12929;56.822;26.056;2022-09-09T05:04:42;5.80;99.90
20534;DHT22;12929;56.822;26.056;2022-09-09T05:07:13;5.90;99.90
20534;DHT22;12929;56.822;26.056;2022-09-09T05:09:42;5.80;99.90
20534;DHT22;12929;56.822;26.056;2022-09-09T05:12:11;5.80;99.90
20534;DHT22;12929;56.822;26.056;2022-09-09T05:14:46;5.80;99.90
20534;DHT22;12929;56.822;26.056;2022-09-09T05:17:13;5.80;99.90
20534;DHT22;12929;56.822;26.056;2022-09-09T05:19:42;5.80;99.90
20534;DHT22;12929;56.822;26.056;2022-09-09T05:22:11;5.90;99.90
20534;DHT22;12929;56.822;26.056;2022-09-09T05:24:44;5.90;99.90
20534;DHT22;12929;56.822;26.056;2022-09-09T05:27:12;5.90;99.90
20534;DHT22;12929;56.822;26.056;2022-09-09T05:29:40;5.90;99.90
20534;DHT22;12929;56.822;26.056;2022-09-09T05:32:11;5.90;99.90
20534;DHT22;12929;56.822;26.056;2022-09-09T05:34:43;6.00;99.90
20534;DHT22;12929;56.822;26.056;2022-09-09T05:37:11;5.90;99.90
20534;DHT22;12929;56.822;26.056;2022-09-09T05:39:39;6.00;99.90
20534;DHT22;12929;56.822;26.056;2022-09-09T05:42:07;6.00;99.90
20534;DHT22;12929;56.822;26.056;2022-09-09T05:44:35;6.00;99.90
20534;DHT22;12929;56.822;26.056;2022-09-09T05:47:04;6.10;99.90
20534;DHT22;12929;56.822;26.056;2022-09-09T05:49:34;6.10;99.90
20534;DHT22;12929;56.822;26.056;2022-09-09T05:52:01;6.10;99.90
20534;DHT22;12929;56.822;26.056;2022-09-09T05:54:31;6.20;99.90
20534;DHT22;12929;56.822;26.056;2022-09-09T05:57:00;6.20;99.90
20534;DHT22;12929;56.822;26.056;2022-09-09T05:59:28;6.20;99.90
20534;DHT22;12929;56.822;26.056;2022-09-09T06:01:57;6.30;99.90
20534;DHT22;12929;56.822;26.056;2022-09-09T06:04:31;6.30;99.90
20534;DHT22;12929;56.822;26.056;2022-09-09T06:07:00;6.40;99.90
20534;DHT22;12929;56.822;26.056;2022-09-09T06:09:29;6.40;99.90
20534;DHT22;12929;56.822;26.056;2022-09-09T06:11:57;6.50;99.90
20534;DHT22;12929;56.822;26.056;2022-09-09T06:14:26;6.40;99.90
20534;DHT22;12929;56.822;26.056;2022-09-09T06:16:57;6.50;99.90
20534;DHT22;12929;56.822;26.056;2022-09-09T06:19:29;6.60;99.90
20534;DHT22;12929;56.822;26.056;2022-09-09T06:21:59;6.60;99.90
20534;DHT22;12929;56.822;26.056;2022-09-09T06:24:29;6.60;99.90
20534;DHT22;12929;56.822;26.056;2022-09-09T06:26:59;6.70;99.90
20534;DHT22;12929;56.822;26.056;2022-09-09T06:29:31;6.70;99.90
20534;DHT22;12929;56.822;26.056;2022-09-09T06:32:01;6.70;99.90
20534;DHT22;12929;56.822;26.056;2022-09-09T06:34:30;6.80;99.90
20534;DHT22;12929;56.822;26.056;2022-09-09T06:36:59;6.80;99.90
20534;DHT22;12929;56.822;26.056;2022-09-09T06:39:34;6.90;99.90
20534;DHT22;12929;56.822;26.056;2022-09-09T06:42:03;6.90;99.90
20534;DHT22;12929;56.822;26.056;2022-09-09T06:44:51;7.00;99.90
20534;DHT22;12929;56.822;26.056;2022-09-09T06:47:31;7.10;99.90
20534;DHT22;12929;56.822;26.056;2022-09-09T06:50:01;7.10;99.90
20534;DHT22;12929;56.822;26.056;2022-09-09T06:52:32;7.10;99.90
20534;DHT22;12929;56.822;26.056;2022-09-09T06:55:00;7.20;99.90
20534;DHT22;12929;56.822;26.056;2022-09-09T06:57:29;7.20;99.90
20534;DHT22;12929;56.822;26.056;2022-09-09T07:00:08;7.30;99.90
20534;DHT22;12929;56.822;26.056;2022-09-09T07:02:37;7.40;99.90
20534;DHT22;12929;56.822;26.056;2022-09-09T07:05:08;7.40;99.90
20534;DHT22;12929;56.822;26.056;2022-09-09T07:07:37;7.50;99.90
20534;DHT22;12929;56.822;26.056;2022-09-09T07:10:05;7.60;99.90
20534;DHT22;12929;56.822;26.056;2022-09-09T07:12:36;7.60;99.90
20534;DHT22;12929;56.822;26.056;2022-09-09T07:15:08;7.70;99.90
20534;DHT22;12929;56.822;26.056;2022-09-09T07:17:40;7.70;99.90
20534;DHT22;12929;56.822;26.056;2022-09-09T07:20:08;7.70;99.90
20534;DHT22;12929;56.822;26.056;2022-09-09T07:22:35;7.80;99.90
20534;DHT22;12929;56.822;26.056;2022-09-09T07:25:04;7.80;99.90
20534;DHT22;12929;56.822;26.056;2022-09-09T07:27:31;7.90;99.90
20534;DHT22;12929;56.822;26.056;2022-09-09T07:29:59;8.00;99.90
20534;DHT22;12929;56.822;26.056;2022-09-09T07:32:27;8.00;99.90
20534;DHT22;12929;56.822;26.056;2022-09-09T07:34:55;8.10;99.90
20534;DHT22;12929;56.822;26.056;2022-09-09T07:37:23;8.10;99.90
20534;DHT22;12929;56.822;26.056;2022-09-09T07:39:52;8.20;99.90
20534;DHT22;12929;56.822;26.056;2022-09-09T07:42:20;8.20;99.90
20534;DHT22;12929;56.822;26.056;2022-09-09T07:44:49;8.30;99.90
20534;DHT22;12929;56.822;26.056;2022-09-09T07:47:16;8.40;99.90
20534;DHT22;12929;56.822;26.056;2022-09-09T07:49:47;8.40;99.90
20534;DHT22;12929;56.822;26.056;2022-09-09T07:52:23;8.50;99.90
20534;DHT22;12929;56.822;26.056;2022-09-09T07:54:55;8.60;99.90
20534;DHT22;12929;56.822;26.056;2022-09-09T07:57:24;8.60;99.90
20534;DHT22;12929;56.822;26.056;2022-09-09T07:59:53;8.70;99.90
20534;DHT22;12929;56.822;26.056;2022-09-09T08:02:22;8.80;99.90
20534;DHT22;12929;56.822;26.056;2022-09-09T08:04:50;8.70;99.90
20534;DHT22;12929;56.822;26.056;2022-09-09T08:07:20;8.80;99.90
20534;DHT22;12929;56.822;26.056;2022-09-09T08:09:53;8.90;99.90
20534;DHT22;12929;56.822;26.056;2022-09-09T08:12:29;9.10;99.90
20534;DHT22;12929;56.822;26.056;2022-09-09T08:14:57;9.30;99.90
20534;DHT22;12929;56.822;26.056;2022-09-09T08:17:29;9.20;99.90
20534;DHT22;12929;56.822;26.056;2022-09-09T08:19:59;9.20;99.90
20534;DHT22;12929;56.822;26.056;2022-09-09T08:22:33;9.40;99.90
20534;DHT22;12929;56.822;26.056;2022-09-09T08:25:01;9.40;99.90
20534;DHT22;12929;56.822;26.056;2022-09-09T08:27:31;9.50;99.90
20534;DHT22;12929;56.822;26.056;2022-09-09T08:30:00;9.60;99.90
20534;DHT22;12929;56.822;26.056;2022-09-09T08:32:29;9.60;99.90
20534;DHT22;12929;56.822;26.056;2022-09-09T08:34:57;9.50;99.90
20534;DHT22;12929;56.822;26.056;2022-09-09T08:37:28;9.70;99.90
20534;DHT22;12929;56.822;26.056;2022-09-09T08:39:56;9.80;99.90
20534;DHT22;12929;56.822;26.056;2022-09-09T08:42:35;9.80;99.90
20534;DHT22;12929;56.822;26.056;2022-09-09T08:45:31;9.80;99.90
20534;DHT22;12929;56.822;26.056;2022-09-09T08:50:52;10.00;99.90
20534;DHT22;12929;56.822;26.056;2022-09-09T08:53:29;10.10;99.90
20534;DHT22;12929;56.822;26.056;2022-09-09T08:56:09;10.20;99.90
20534;DHT22;12929;56.822;26.056;2022-09-09T08:58:50;10.40;99.90
20534;DHT22;12929;56.822;26.056;2022-09-09T09:01:38;10.30;99.90
20534;DHT22;12929;56.822;26.056;2022-09-09T09:04:29;10.40;99.90
20534;DHT22;12929;56.822;26.056;2022-09-09T09:07:26;10.50;99.90
20534;DHT22;12929;56.822;26.056;2022-09-09T09:10:12;10.40;99.90
20534;DHT22;12929;56.822;26.056;2022-09-09T09:13:03;10.50;99.90
20534;DHT22;12929;56.822;26.056;2022-09-09T09:15:37;10.50;99.90
20534;DHT22;12929;56.822;26.056;2022-09-09T09:18:11;10.50;99.90
20534;DHT22;12929;56.822;26.056;2022-09-09T09:21:16;10.50;99.90
20534;DHT22;12929;56.822;26.056;2022-09-09T09:23:58;10.70;99.90
20534;DHT22;12929;56.822;26.056;2022-09-09T09:26:33;10.80;99.90
20534;DHT22;12929;56.822;26.056;2022-09-09T09:29:15;10.80;99.90
20534;DHT22;12929;56.822;26.056;2022-09-09T09:31:55;10.80;99.90
20534;DHT22;12929;56.822;26.056;2022-09-09T09:34:25;10.80;99.90
20534;DHT22;12929;56.822;26.056;2022-09-09T09:36:59;10.80;99.90
20534;DHT22;12929;56.822;26.056;2022-09-09T09:39:33;11.00;99.90
20534;DHT22;12929;56.822;26.056;2022-09-09T09:42:28;11.10;99.90
20534;DHT22;12929;56.822;26.056;2022-09-09T09:45:08;11.30;99.90
20534;DHT22;12929;56.822;26.056;2022-09-09T09:47:36;11.30;99.90
20534;DHT22;12929;56.822;26.056;2022-09-09T09:50:19;11.30;99.90
20534;DHT22;12929;56.822;26.056;2022-09-09T09:53:04;11.20;99.90
20534;DHT22;12929;56.822;26.056;2022-09-09T09:55:50;11.20;99.90
20534;DHT22;12929;56.822;26.056;2022-09-09T09:58:21;11.40;99.90
20534;DHT22;12929;56.822;26.056;2022-09-09T10:00:52;11.60;99.90
20534;DHT22;12929;56.822;26.056;2022-09-09T10:03:31;11.60;99.90
20534;DHT22;12929;56.822;26.056;2022-09-09T10:06:01;11.70;99.90
20534;DHT22;12929;56.822;26.056;2022-09-09T10:08:28;11.70;99.90
20534;DHT22;12929;56.822;26.056;2022-09-09T10:24:36;12.00;99.90
20534;DHT22;12929;56.822;26.056;2022-09-09T10:27:32;12.00;99.90
20534;DHT22;12929;56.822;26.056;2022-09-09T10:39:35;12.20;99.90
20534;DHT22;12929;56.822;26.056;2022-09-09T10:44:22;12.00;99.90
20534;DHT22;12929;56.822;26.056;2022-09-09T10:56:02;12.60;99.90
20534;DHT22;12929;56.822;26.056;2022-09-09T10:59:00;12.60;99.90
20534;DHT22;12929;56.822;26.056;2022-09-09T11:01:52;12.70;99.90
20534;DHT22;12929;56.822;26.056;2022-09-09T11:04:29;12.80;99.90
20534;DHT22;12929;56.822;26.056;2022-09-09T11:07:02;12.90;99.90
20534;DHT22;12929;56.822;26.056;2022-09-09T11:09:45;12.90;99.90
20534;DHT22;12929;56.822;26.056;2022-09-09T11:12:19;13.00;99.90
20534;DHT22;12929;56.822;26.056;2022-09-09T11:15:01;13.10;99.90
20534;DHT22;12929;56.822;26.056;2022-09-09T11:17:46;13.10;99.90
20534;DHT22;12929;56.822;26.056;2022-09-09T11:20:14;13.10;99.90
20534;DHT22;12929;56.822;26.056;2022-09-09T11:25:28;13.30;99.90
20534;DHT22;12929;56.822;26.056;2022-09-09T11:28:28;13.30;99.90
20534;DHT22;12929;56.822;26.056;2022-09-09T11:42:26;13.60;99.90
20534;DHT22;12929;56.822;26.056;2022-09-09T11:44:54;13.70;99.90
20534;DHT22;12929;56.822;26.056;2022-09-09T11:47:28;13.80;99.90
20534;DHT22;12929;56.822;26.056;2022-09-09T11:52:46;13.80;99.90
20534;DHT22;12929;56.822;26.056;2022-09-09T11:55:25;13.80;99.90
20534;DHT22;12929;56.822;26.056;2022-09-09T11:58:05;13.90;99.90
20534;DHT22;12929;56.822;26.056;2022-09-09T12:00:41;14.00;99.90
20534;DHT22;12929;56.822;26.056;2022-09-09T12:08:53;14.30;99.90
20534;DHT22;12929;56.822;26.056;2022-09-09T12:11:26;14.40;99.90
20534;DHT22;12929;56.822;26.056;2022-09-09T12:13:57;14.20;99.90
20534;DHT22;12929;56.822;26.056;2022-09-09T12:16:33;14.30;99.90
20534;DHT22;12929;56.822;26.056;2022-09-09T12:19:18;14.40;99.90
20534;DHT22;12929;56.822;26.056;2022-09-09T12:22:05;14.60;99.90
20534;DHT22;12929;56.822;26.056;2022-09-09T12:24:40;14.50;99.90
20534;DHT22;12929;56.822;26.056;2022-09-09T12:27:28;14.50;99.90
20534;DHT22;12929;56.822;26.056;2022-09-09T12:30:04;14.60;99.90
20534;DHT22;12929;56.822;26.056;2022-09-09T12:32:36;14.70;99.90
20534;DHT22;12929;56.822;26.056;2022-09-09T12:35:17;14.70;99.90
20534;DHT22;12929;56.822;26.056;2022-09-09T12:37:54;14.80;99.90
20534;DHT22;12929;56.822;26.056;2022-09-09T12:40:26;14.90;99.90
20534;DHT22;12929;56.822;26.056;2022-09-09T12:42:55;14.90;99.90
20534;DHT22;12929;56.822;26.056;2022-09-09T12:45:25;15.00;99.90
20534;DHT22;12929;56.822;26.056;2022-09-09T12:48:00;15.00;99.90
20534;DHT22;12929;56.822;26.056;2022-09-09T12:50:31;15.10;99.90
20534;DHT22;12929;56.822;26.056;2022-09-09T12:53:08;15.00;99.90
20534;DHT22;12929;56.822;26.056;2022-09-09T12:55:38;15.20;99.90
20534;DHT22;12929;56.822;26.056;2022-09-09T12:58:07;15.20;99.90
20534;DHT22;12929;56.822;26.056;2022-09-09T13:00:34;15.30;99.90
20534;DHT22;12929;56.822;26.056;2022-09-09T13:03:16;15.30;99.90
20534;DHT22;12929;56.822;26.056;2022-09-09T13:05:44;15.30;99.90
20534;DHT22;12929;56.822;26.056;2022-09-09T13:08:17;15.40;99.90
20534;DHT22;12929;56.822;26.056;2022-09-09T13:11:00;15.50;99.90
20534;DHT22;12929;56.822;26.056;2022-09-09T13:13:41;15.40;99.90
20534;DHT22;12929;56.822;26.056;2022-09-09T13:16:22;15.50;99.90
20534;DHT22;12929;56.822;26.056;2022-09-09T13:18:51;15.60;99.90
20534;DHT22;12929;56.822;26.056;2022-09-09T13:21:19;15.60;99.90
20534;DHT22;12929;56.822;26.056;2022-09-09T13:23:58;15.60;99.90
20534;DHT22;12929;56.822;26.056;2022-09-09T13:26:30;15.70;99.90
20534;DHT22;12929;56.822;26.056;2022-09-09T13:29:16;15.80;99.90
20534;DHT22;12929;56.822;26.056;2022-09-09T13:31:53;15.70;99.90
20534;DHT22;12929;56.822;26.056;2022-09-09T13:34:29;15.60;99.90
20534;DHT22;12929;56.822;26.056;2022-09-09T13:37:02;15.60;99.90
20534;DHT22;12929;56.822;26.056;2022-09-09T13:39:37;15.60;99.90
20534;DHT22;12929;56.822;26.056;2022-09-09T13:42:05;15.70;99.90
20534;DHT22;12929;56.822;26.056;2022-09-09T13:44:39;15.90;99.90
20534;DHT22;12929;56.822;26.056;2022-09-09T13:49:36;16.00;99.90
20534;DHT22;12929;56.822;26.056;2022-09-09T13:52:10;15.90;99.90
20534;DHT22;12929;56.822;26.056;2022-09-09T13:54:40;15.80;99.90
20534;DHT22;12929;56.822;26.056;2022-09-09T13:57:17;15.80;99.90
20534;DHT22;12929;56.822;26.056;2022-09-09T13:59:47;15.70;99.90
20534;DHT22;12929;56.822;26.056;2022-09-09T14:02:32;15.60;99.90
20534;DHT22;12929;56.822;26.056;2022-09-09T14:05:01;15.70;99.90
20534;DHT22;12929;56.822;26.056;2022-09-09T14:07:28;15.70;99.90
20534;DHT22;12929;56.822;26.056;2022-09-09T14:09:56;15.80;99.90
20534;DHT22;12929;56.822;26.056;2022-09-09T14:12:24;15.80;99.90
20534;DHT22;12929;56.822;26.056;2022-09-09T14:14:52;15.70;99.90
20534;DHT22;12929;56.822;26.056;2022-09-09T14:17:19;15.70;99.90
20534;DHT22;12929;56.822;26.056;2022-09-09T14:19:47;15.60;99.90
20534;DHT22;12929;56.822;26.056;2022-09-09T14:22:15;15.50;99.90
20534;DHT22;12929;56.822;26.056;2022-09-09T14:24:43;15.70;99.90
20534;DHT22;12929;56.822;26.056;2022-09-09T14:27:10;15.60;99.90
20534;DHT22;12929;56.822;26.056;2022-09-09T14:29:38;15.50;99.90
20534;DHT22;12929;56.822;26.056;2022-09-09T14:32:06;15.50;99.90
20534;DHT22;12929;56.822;26.056;2022-09-09T14:34:38;15.60;99.90
20534;DHT22;12929;56.822;26.056;2022-09-09T14:37:06;15.60;99.90
20534;DHT22;12929;56.822;26.056;2022-09-09T14:39:34;15.50;99.90
20534;DHT22;12929;56.822;26.056;2022-09-09T14:42:02;15.50;99.90
20534;DHT22;12929;56.822;26.056;2022-09-09T14:44:29;15.50;99.90
20534;DHT22;12929;56.822;26.056;2022-09-09T14:46:57;15.40;99.90
20534;DHT22;12929;56.822;26.056;2022-09-09T14:49:25;15.40;99.90
20534;DHT22;12929;56.822;26.056;2022-09-09T14:51:53;15.20;99.90
20534;DHT22;12929;56.822;26.056;2022-09-09T14:54:21;15.10;99.90
20534;DHT22;12929;56.822;26.056;2022-09-09T14:56:50;15.10;99.90
20534;DHT22;12929;56.822;26.056;2022-09-09T14:59:17;14.90;99.90
20534;DHT22;12929;56.822;26.056;2022-09-09T15:01:45;14.80;99.90
20534;DHT22;12929;56.822;26.056;2022-09-09T15:04:13;14.70;99.90
20534;DHT22;12929;56.822;26.056;2022-09-09T15:06:47;14.60;99.90
20534;DHT22;12929;56.822;26.056;2022-09-09T15:09:17;14.60;99.90
20534;DHT22;12929;56.822;26.056;2022-09-09T15:11:44;14.50;99.90
20534;DHT22;12929;56.822;26.056;2022-09-09T15:14:12;14.40;99.90
20534;DHT22;12929;56.822;26.056;2022-09-09T15:16:40;14.30;99.90
20534;DHT22;12929;56.822;26.056;2022-09-09T15:19:08;14.10;99.90
20534;DHT22;12929;56.822;26.056;2022-09-09T15:21:37;14.20;99.90
20534;DHT22;12929;56.822;26.056;2022-09-09T15:24:06;14.10;99.90
20534;DHT22;12929;56.822;26.056;2022-09-09T15:26:36;13.90;99.90
20534;DHT22;12929;56.822;26.056;2022-09-09T15:29:06;13.80;99.90
20534;DHT22;12929;56.822;26.056;2022-09-09T15:31:36;13.80;99.90
20534;DHT22;12929;56.822;26.056;2022-09-09T15:34:06;13.70;99.90
20534;DHT22;12929;56.822;26.056;2022-09-09T15:39:05;13.60;99.90
20534;DHT22;12929;56.822;26.056;2022-09-09T15:41:34;13.60;99.90
20534;DHT22;12929;56.822;26.056;2022-09-09T15:44:02;13.50;99.90
20534;DHT22;12929;56.822;26.056;2022-09-09T15:46:41;13.60;99.90
20534;DHT22;12929;56.822;26.056;2022-09-09T15:49:13;13.60;99.90
20534;DHT22;12929;56.822;26.056;2022-09-09T15:51:43;13.50;99.90
20534;DHT22;12929;56.822;26.056;2022-09-09T15:54:13;13.40;99.90
20534;DHT22;12929;56.822;26.056;2022-09-09T15:56:42;13.40;99.90
20534;DHT22;12929;56.822;26.056;2022-09-09T15:59:10;13.30;99.90
20534;DHT22;12929;56.822;26.056;2022-09-09T16:01:39;13.30;99.90
20534;DHT22;12929;56.822;26.056;2022-09-09T16:04:10;13.40;99.90
20534;DHT22;12929;56.822;26.056;2022-09-09T16:06:38;13.30;99.90
20534;DHT22;12929;56.822;26.056;2022-09-09T16:09:07;13.20;99.90
20534;DHT22;12929;56.822;26.056;2022-09-09T16:11:36;13.30;99.90
20534;DHT22;12929;56.822;26.056;2022-09-09T16:14:05;13.20;99.90
20534;DHT22;12929;56.822;26.056;2022-09-09T16:16:34;13.20;99.90
20534;DHT22;12929;56.822;26.056;2022-09-09T16:19:07;13.20;99.90
20534;DHT22;12929;56.822;26.056;2022-09-09T16:21:40;13.20;99.90
20534;DHT22;12929;56.822;26.056;2022-09-09T16:24:11;13.10;99.90
20534;DHT22;12929;56.822;26.056;2022-09-09T16:26:42;13.10;99.90
20534;DHT22;12929;56.822;26.056;2022-09-09T16:29:14;13.10;99.90
20534;DHT22;12929;56.822;26.056;2022-09-09T16:31:43;13.10;99.90
20534;DHT22;12929;56.822;26.056;2022-09-09T16:34:11;13.00;99.90
20534;DHT22;12929;56.822;26.056;2022-09-09T16:36:40;13.00;99.90
20534;DHT22;12929;56.822;26.056;2022-09-09T16:39:14;12.90;99.90
20534;DHT22;12929;56.822;26.056;2022-09-09T16:41:43;12.80;99.90
20534;DHT22;12929;56.822;26.056;2022-09-09T16:44:13;12.80;99.90
20534;DHT22;12929;56.822;26.056;2022-09-09T16:46:43;12.70;99.90
20534;DHT22;12929;56.822;26.056;2022-09-09T16:49:15;12.70;99.90
20534;DHT22;12929;56.822;26.056;2022-09-09T16:51:50;12.60;99.90
20534;DHT22;12929;56.822;26.056;2022-09-09T16:54:20;12.60;99.90
20534;DHT22;12929;56.822;26.056;2022-09-09T16:56:50;12.60;99.90
20534;DHT22;12929;56.822;26.056;2022-09-09T16:59:20;12.50;99.90
20534;DHT22;12929;56.822;26.056;2022-09-09T17:01:50;12.50;99.90
20534;DHT22;12929;56.822;26.056;2022-09-09T17:04:20;12.40;99.90
20534;DHT22;12929;56.822;26.056;2022-09-09T17:06:50;12.40;99.90
20534;DHT22;12929;56.822;26.056;2022-09-09T17:09:19;12.30;99.90
20534;DHT22;12929;56.822;26.056;2022-09-09T17:11:48;12.40;99.90
20534;DHT22;12929;56.822;26.056;2022-09-09T17:14:18;12.40;99.90
20534;DHT22;12929;56.822;26.056;2022-09-09T17:16:47;12.30;99.90
20534;DHT22;12929;56.822;26.056;2022-09-09T17:19:15;12.30;99.90
20534;DHT22;12929;56.822;26.056;2022-09-09T17:21:43;12.20;99.90
20534;DHT22;12929;56.822;26.056;2022-09-09T17:24:34;12.20;99.90
20534;DHT22;12929;56.822;26.056;2022-09-09T17:27:03;12.10;99.90
20534;DHT22;12929;56.822;26.056;2022-09-09T17:29:34;12.10;99.90
20534;DHT22;12929;56.822;26.056;2022-09-09T17:32:03;12.10;99.90
20534;DHT22;12929;56.822;26.056;2022-09-09T17:34:33;12.10;99.90
20534;DHT22;12929;56.822;26.056;2022-09-09T17:37:01;12.10;99.90